< < Back
Terminal Aerodrome Forecast


Current Version              Previous Versions:   1  2  3  4  5  6  7  8  9  

Terminal Aerodrome Forecast

540
FTUS44 KMRX 291720
TAFTYS
TAF
KTYS 291720Z 2918/3018 VRB03KT P6SM SCT250
     FM300400 VRB04KT P6SM BKN150
     FM301700 24005KT P6SM VCTS BKN050CB=



Latest METAR

876
SAUS80 KWBC 300700 RRA
MTRTYS
METAR KTYS 300653Z 05005KT 10SM FEW110 OVC150 17/13 A2994 RMK AO2 SLP129
T01670133


USA.gov is the U.S. government's official web portal to all federal, state and local government web resources and services.